KICT/ICT METAR and TAF weather

Enter ICAO airport designator
Station Type Date Time Source
KICT METAR 2019/12/13 02:53 UTC NOAA

KICT 130253Z 20004KT 10SM FEW120 SCT150 BKN180 BKN220 07/02 A3001 RMK AO2 SLP165 T00670017 53002


Station Type Date Time Source
KICT Decoded METAR 2019/12/13 02:53 UTC NOAA

WICHITA MID-CONTINENT AIRPORT , KS, United States (KICT) 37-39N 97-26W 408M
Dec 12, 2019 - 09:53 PM EST / 2019.12.13 0253 UTC
Wind: from the SSW (200 degrees) at 5 MPH (4 KT):0
Visibility: 10 mile(s):0
Sky conditions: mostly cloudy
Temperature: 44.1 F (6.7 C)
Dew Point: 35.1 F (1.7 C)
Relative Humidity: 70%
Pressure (altimeter): 30.01 in. Hg (1016 hPa)
Pressure tendency: 0.01 inches (0.2 hPa) higher than three hours ago
ob: KICT 130253Z 20004KT 10SM FEW120 SCT150 BKN180 BKN220 07/02 A3001 RMK AO2 SLP165 T00670017 53002
cycle: 3

Station Type Date Time Source
KICT TAF 2019/12/12 18:33 UTC NOAA

TAF KICT 121731Z 1218/1318 20015G22KT P6SM SKC
FM122300 19006KT P6SM BKN200
FM130600 VRB04KT P6SM BKN250
FM131500 24007KT P6SM SCT150

Example: see airport list